Terminal Aerodrome Forecast
Issued by NWS

Home | Current Version | Previous Version | Text Only | Print | Product List | Glossary Off
Versions: 1 2 3 4 5 6 7 8 9 10 11 12 13

000
FTUS43 KTOP 200500
TAFFOE
TAF
KFOE 200520Z 2006/2106 17004KT P6SM SCT150
     FM201500 19015G22KT P6SM FEW035
     FM210100 18008KT P6SM SCT130=

USA.gov is the U.S. government's official web portal to all federal, state and local government web resources and services.